Time;durP1;ratioP1;P1;durP2;ratioP2;P2;SDS_P1;SDS_P2;PMS_P1;PMS_P2;Temp;Humidity;BMP_temperature;BMP_pressure;BME280_temperature;BME280_humidity;BME280_pressure;Samples;Min_cycle;Max_cycle;Signal;HPM_P1;HPM_P2
2021/12/08 00:00:37;;;;;;;;;;;3.10;99.90;;;;;;5076341;28;20076;-73
2021/12/08 00:03:06;;;;;;;8.70;3.08;;;3.00;99.90;;;;;;5075853;28;20023;-69
2021/12/08 00:05:32;;;;;;;6.70;3.67;;;3.50;99.90;;;;;;5074859;28;20446;-71
2021/12/08 00:07:59;;;;;;;8.00;3.15;;;3.90;99.90;;;;;;5074939;28;20106;-69
2021/12/08 00:10:51;;;;;;;9.32;3.35;;;4.20;99.90;;;;;;5075783;28;20036;-69
2021/12/08 00:13:11;;;;;;;6.28;2.70;;;3.10;99.90;;;;;;5075539;28;20476;-69
2021/12/08 00:15:46;;;;;;;6.90;3.42;;;3.60;99.90;;;;;;5075703;28;20131;-69
2021/12/08 00:18:21;;;;;;;7.07;3.17;;;2.70;99.90;;;;;;5075565;28;20427;-70
2021/12/08 00:20:48;;;;;;;8.63;3.08;;;3.80;99.90;;;;;;5075618;28;20511;-69
2021/12/08 00:23:15;;;;;;;;;;;3.90;99.90;;;;;;5074926;28;20044;-69
2021/12/08 00:25:41;;;;;;;8.93;3.30;;;2.70;99.90;;;;;;5075649;28;19921;-72
2021/12/08 00:28:08;;;;;;;8.63;4.93;;;2.60;99.90;;;;;;5074370;28;20040;-71
2021/12/08 00:30:37;;;;;;;7.97;2.95;;;2.90;99.90;;;;;;5074225;28;20404;-71
2021/12/08 00:33:03;;;;;;;9.55;3.38;;;3.60;99.90;;;;;;5074550;28;20041;-70
2021/12/08 00:35:29;;;;;;;;;;;3.80;99.90;;;;;;5075692;28;20488;-69
2021/12/08 00:37:57;;;;;;;9.63;4.90;;;2.80;99.90;;;;;;5075262;28;19927;-70
2021/12/08 00:40:24;;;;;;;7.72;3.35;;;3.40;99.90;;;;;;5075192;28;20044;-69
2021/12/08 00:42:50;;;;;;;7.72;3.45;;;2.80;99.90;;;;;;5075103;28;20055;-69
2021/12/08 00:45:18;;;;;;;9.38;3.97;;;2.40;99.90;;;;;;5075052;28;20560;-71
2021/12/08 00:47:48;;;;;;;7.47;3.28;;;2.40;99.90;;;;;;5075243;28;20083;-72
2021/12/08 00:50:15;;;;;;;6.22;3.55;;;2.40;99.90;;;;;;5075040;28;20093;-71
2021/12/08 00:52:41;;;;;;;6.32;2.80;;;2.40;99.90;;;;;;5074008;28;20101;-69
2021/12/08 00:55:13;;;;;;;5.53;3.33;;;2.40;99.90;;;;;;5074977;28;20048;-68
2021/12/08 00:57:39;;;;;;;5.90;2.67;;;2.40;99.90;;;;;;5073484;28;20056;-70
2021/12/08 01:00:09;;;;;;;8.75;3.22;;;2.40;99.90;;;;;;5073930;28;20396;-69
2021/12/08 01:02:39;;;;;;;5.43;2.97;;;2.40;99.90;;;;;;5090913;28;20132;-69
2021/12/08 01:05:13;;;;;;;5.35;2.75;;;2.60;99.90;;;;;;5074788;28;20145;-72
2021/12/08 01:07:39;;;;;;;7.63;2.85;;;2.40;99.90;;;;;;5074671;28;20056;-70
2021/12/08 01:10:08;;;;;;;8.18;3.13;;;2.40;99.90;;;;;;5074575;28;20048;-69
2021/12/08 01:12:34;;;;;;;4.78;2.53;;;2.40;99.90;;;;;;5057330;28;20060;-68
2021/12/08 01:15:00;;;;;;;4.65;2.45;;;2.40;99.90;;;;;;5073442;28;20490;-71
2021/12/08 01:17:26;;;;;;;8.05;3.83;;;2.50;99.90;;;;;;5074575;28;20136;-69
2021/12/08 01:19:51;;;;;;;5.88;2.35;;;3.70;99.90;;;;;;5074492;28;20511;-71
2021/12/08 01:22:17;;;;;;;5.20;2.78;;;2.40;99.90;;;;;;5074468;28;20047;-69
2021/12/08 01:24:43;;;;;;;9.03;2.87;;;3.10;99.90;;;;;;5073059;28;20513;-71
2021/12/08 01:27:09;;;;;;;7.70;2.80;;;2.40;99.90;;;;;;5073159;28;20279;-69
2021/12/08 01:29:36;;;;;;;6.55;2.47;;;2.40;99.90;;;;;;5074389;28;20282;-69
2021/12/08 01:32:02;;;;;;;5.88;2.50;;;2.40;99.90;;;;;;5074223;28;20084;-68
2021/12/08 01:34:28;;;;;;;7.72;2.65;;;2.40;99.90;;;;;;5073194;28;20049;-69
2021/12/08 01:36:53;;;;;;;6.07;2.50;;;4.20;99.90;;;;;;5073222;28;20051;-69
2021/12/08 01:39:19;;;;;;;5.38;2.78;;;3.60;99.90;;;;;;5072839;28;20044;-68
2021/12/08 01:41:45;;;;;;;5.85;2.88;;;3.50;99.90;;;;;;5073936;28;20400;-69
2021/12/08 01:46:56;;;;;;;4.65;2.20;;;2.40;99.90;;;;;;5073181;28;20063;-69
2021/12/08 01:49:22;;;;;;;6.88;3.15;;;2.40;99.90;;;;;;5073867;28;20048;-69
2021/12/08 01:51:49;;;;;;;6.22;2.35;;;3.90;99.90;;;;;;5072559;28;20048;-70
2021/12/08 01:54:15;;;;;;;4.63;2.38;;;2.40;99.90;;;;;;5073691;28;20407;-68
2021/12/08 01:56:41;;;;;;;6.57;2.47;;;2.40;99.90;;;;;;5073808;28;20162;-69
2021/12/08 01:59:09;;;;;;;6.57;2.90;;;2.40;99.90;;;;;;5073802;28;20503;-69
2021/12/08 02:01:39;;;;;;;7.90;3.30;;;2.90;99.90;;;;;;5073738;28;20044;-69
2021/12/08 02:04:06;;;;;;;4.15;2.35;;;2.40;99.90;;;;;;5073549;28;20040;-69
2021/12/08 02:06:38;;;;;;;5.32;2.42;;;2.40;99.90;;;;;;5072665;28;20050;-70
2021/12/08 02:09:09;;;;;;;6.22;2.80;;;2.40;99.90;;;;;;5073383;28;20047;-70
2021/12/08 02:11:35;;;;;;;7.45;2.42;;;2.40;99.90;;;;;;5073660;28;20040;-68
2021/12/08 02:14:01;;;;;;;7.78;2.28;;;4.20;99.90;;;;;;5073641;28;20466;-70
2021/12/08 02:16:29;;;;;;;5.10;2.75;;;2.40;99.90;;;;;;5073574;28;20542;-69
2021/12/08 02:18:55;;;;;;;4.97;2.60;;;3.00;99.90;;;;;;5073522;28;20094;-71
2021/12/08 02:21:27;;;;;;;6.90;3.08;;;2.50;99.90;;;;;;5073424;28;20043;-68
2021/12/08 02:23:54;;;;;;;6.95;3.20;;;2.50;99.90;;;;;;5073250;28;20492;-69
2021/12/08 02:26:21;;;;;;;5.90;2.83;;;2.70;99.90;;;;;;5073568;28;20131;-69
2021/12/08 02:28:47;;;;;;;6.80;2.53;;;3.50;99.90;;;;;;5073567;28;20109;-70
2021/12/08 02:31:16;;;;;;;4.60;2.70;;;2.60;99.90;;;;;;5073291;28;20488;-72
2021/12/08 02:49:53;;;;;;;4.82;2.80;;;2.70;99.90;;;;;;5072154;28;20114;-68
2021/12/08 02:52:18;;;;;;;6.28;2.80;;;2.70;99.90;;;;;;5072012;28;20049;-70
2021/12/08 02:54:47;;;;;;;4.30;2.53;;;2.70;99.90;;;;;;5073154;28;20044;-71
2021/12/08 02:57:15;;;;;;;5.15;3.05;;;4.50;99.90;;;;;;5071857;28;20400;-68
2021/12/08 02:59:43;;;;;;;3.15;2.10;;;2.80;99.90;;;;;;5076622;28;20135;-69
2021/12/08 03:02:09;;;;;;;5.10;2.95;;;4.60;99.90;;;;;;5076309;28;20056;-71
2021/12/08 03:04:35;;;;;;;7.95;3.03;;;4.00;99.90;;;;;;5077171;28;20080;-71
2021/12/08 03:07:01;;;;;;;7.78;3.75;;;2.80;99.90;;;;;;5077103;28;20044;-71
2021/12/08 03:09:27;;;;;;;6.82;2.67;;;3.00;99.90;;;;;;5076971;28;20102;-68
2021/12/08 03:11:55;;;;;;;7.05;3.22;;;3.60;99.90;;;;;;5075612;28;20040;-71
2021/12/08 03:14:21;;;;;;;7.60;2.92;;;2.80;99.90;;;;;;5077132;28;20052;-71
2021/12/08 03:16:51;;;;;;;5.70;3.03;;;2.90;99.90;;;;;;5077017;28;20077;-71
2021/12/08 03:19:20;;;;;;;8.40;3.45;;;4.60;99.90;;;;;;5076865;28;20040;-72
2021/12/08 03:21:46;;;;;;;6.70;2.83;;;2.90;99.90;;;;;;5075850;28;20139;-70
2021/12/08 03:24:31;;;;;;;6.47;3.97;;;2.90;99.90;;;;;;5076630;28;20052;-67
2021/12/08 03:29:35;;;;;;;4.72;2.97;;;3.40;99.90;;;;;;5076676;28;20056;-70
2021/12/08 03:32:06;;;;;;;5.28;3.25;;;2.90;99.90;;;;;;5075410;28;20056;-69
2021/12/08 03:34:36;;;;;;;5.55;3.22;;;2.90;99.90;;;;;;5076395;28;20396;-68
2021/12/08 03:37:05;;;;;;;8.00;3.97;;;2.90;99.90;;;;;;5076333;28;20053;-69
2021/12/08 03:39:31;;;;;;;5.07;3.20;;;3.70;99.90;;;;;;5075371;28;20479;-68
2021/12/08 03:41:57;;;;;;;6.13;3.30;;;3.00;99.90;;;;;;5076465;28;20052;-70
2021/12/08 03:44:22;;;;;;;9.98;5.00;;;3.60;99.90;;;;;;5076388;28;20044;-68
2021/12/08 03:46:50;;;;;;;8.25;3.65;;;4.10;99.90;;;;;;5076295;28;20533;-69
2021/12/08 03:49:17;;;;;;;6.95;3.08;;;3.00;99.90;;;;;;5075086;28;20052;-69
2021/12/08 03:51:43;;;;;;;6.70;3.53;;;3.00;99.90;;;;;;5076012;28;20430;-69
2021/12/08 03:54:11;;;;;;;9.77;4.35;;;3.00;99.90;;;;;;5075934;28;20479;-68
2021/12/08 03:56:38;;;;;;;8.10;3.78;;;3.70;99.90;;;;;;5076000;28;20091;-69
2021/12/08 03:59:05;;;;;;;;;;;3.10;99.90;;;;;;5076455;28;20056;-69
2021/12/08 04:01:31;;;;;;;8.27;4.57;;;4.30;99.90;;;;;;5076030;28;19973;-68
2021/12/08 04:04:02;;;;;;;;;;;3.30;99.90;;;;;;5076451;28;20350;-69
2021/12/08 04:06:33;;;;;;;5.53;3.80;;;3.10;99.90;;;;;;5075803;28;19920;-69
2021/12/08 04:09:05;;;;;;;6.60;3.60;;;3.20;99.90;;;;;;5075434;28;20052;-70
2021/12/08 04:11:31;;;;;;;5.75;3.80;;;3.20;99.90;;;;;;5074735;28;20488;-69
2021/12/08 04:14:02;;;;;;;5.72;3.80;;;3.20;99.90;;;;;;5074945;28;20047;-68
2021/12/08 04:16:33;;;;;;;8.65;3.83;;;3.20;99.90;;;;;;5075598;28;20056;-68
2021/12/08 04:19:00;;;;;;;5.18;4.07;;;4.30;99.90;;;;;;5075626;28;20054;-69
2021/12/08 04:21:28;;;;;;;5.05;3.65;;;3.20;99.90;;;;;;5074477;28;20056;-68
2021/12/08 04:23:54;;;;;;;7.60;4.22;;;3.20;99.90;;;;;;5075883;28;20063;-69
2021/12/08 04:26:29;;;;;;;6.93;4.07;;;3.20;99.90;;;;;;5075707;28;20051;-71
2021/12/08 04:28:55;;;;;;;7.03;3.95;;;3.30;99.90;;;;;;5074205;28;20189;-68
2021/12/08 04:31:32;;;;;;;8.55;4.50;;;4.10;99.90;;;;;;5074288;28;20045;-69
2021/12/08 04:34:02;;;;;;;6.35;4.75;;;4.40;99.90;;;;;;5074353;28;20052;-70
2021/12/08 04:36:38;;;;;;;9.18;4.30;;;3.90;99.90;;;;;;5074568;28;20040;-68
2021/12/08 04:39:11;;;;;;;7.65;5.10;;;4.70;99.90;;;;;;5075320;28;20163;-69
2021/12/08 04:41:42;;;;;;;7.45;4.75;;;5.00;99.90;;;;;;5075274;28;20446;-68
2021/12/08 04:44:22;;;;;;;7.53;4.75;;;3.40;99.90;;;;;;5075231;28;20060;-71
2021/12/08 05:06:25;;;;;;;7.38;5.43;;;3.60;99.90;;;;;;5073844;28;20518;-70
2021/12/08 05:08:53;;;;;;;6.88;5.15;;;3.60;99.90;;;;;;5073561;28;20041;-69
2021/12/08 05:11:27;;;;;;;8.85;5.45;;;3.60;99.90;;;;;;5074500;28;20628;-71
2021/12/08 05:13:57;;;;;;;10.13;6.53;;;3.60;99.90;;;;;;5074567;28;20084;-70
2021/12/08 05:16:25;;;;;;;9.70;6.22;;;3.60;99.90;;;;;;5056764;28;20055;-69
2021/12/08 05:18:53;;;;;;;10.10;6.45;;;3.60;99.90;;;;;;5074394;28;20446;-70
2021/12/08 05:21:32;;;;;;;8.55;6.32;;;5.00;99.90;;;;;;5072403;28;20052;-71
2021/12/08 05:24:08;;;;;;;10.35;6.22;;;3.70;99.90;;;;;;5074256;28;20607;-69
2021/12/08 05:26:45;;;;;;;9.27;6.35;;;4.10;99.90;;;;;;5074335;28;20066;-69
2021/12/08 05:29:42;;;;;;;9.77;6.57;;;3.80;99.90;;;;;;5073442;28;20126;-69
2021/12/08 05:32:08;;;;;;;9.27;6.35;;;4.60;99.90;;;;;;5073903;28;20511;-69
2021/12/08 05:34:35;;;;;;;14.05;7.72;;;3.80;99.90;;;;;;5074239;28;20080;-69
2021/12/08 05:37:05;;;;;;;10.82;7.53;;;5.10;99.90;;;;;;5073055;28;20051;-69
2021/12/08 05:39:31;;;;;;;9.35;7.20;;;3.80;99.90;;;;;;5074118;28;20084;-69
2021/12/08 05:42:04;;;;;;;10.95;8.05;;;4.60;99.90;;;;;;5073170;28;20044;-69
2021/12/08 05:44:30;;;;;;;12.10;8.45;;;3.80;99.90;;;;;;5073951;28;20499;-68
2021/12/08 05:47:01;;;;;;;10.65;7.28;;;3.80;99.90;;;;;;5073908;28;20051;-69
2021/12/08 05:49:27;;;;;;;13.13;7.95;;;4.70;99.90;;;;;;5073837;28;20044;-71
2021/12/08 05:51:56;;;;;;;11.82;7.22;;;5.20;99.90;;;;;;5073904;28;20090;-69
2021/12/08 05:54:34;;;;;;;10.50;7.78;;;4.50;99.90;;;;;;5072758;28;20480;-72
2021/12/08 05:57:10;;;;;;;9.98;7.22;;;4.30;99.90;;;;;;5073475;28;20063;-71
2021/12/08 05:59:37;;;;;;;10.38;6.78;;;3.90;99.90;;;;;;5073770;28;20060;-68
2021/12/08 06:02:16;;;;;;;9.13;7.07;;;4.00;99.90;;;;;;5073597;28;20032;-68
2021/12/08 06:04:43;;;;;;;12.25;6.82;;;4.00;99.90;;;;;;5073754;28;20055;-69
2021/12/08 06:07:09;;;;;;;;;;;4.50;99.90;;;;;;5074184;28;20403;-72
2021/12/08 06:09:36;;;;;;;10.50;7.22;;;4.80;99.90;;;;;;5073564;28;19921;-69
2021/12/08 06:12:05;;;;;;;10.75;7.55;;;4.00;99.90;;;;;;5073517;28;20044;-69
2021/12/08 06:14:32;;;;;;;11.35;7.18;;;4.00;99.90;;;;;;5072475;28;20044;-69
2021/12/08 06:17:02;;;;;;;11.93;6.97;;;4.00;99.90;;;;;;5072501;28;20053;-68
2021/12/08 06:19:29;;;;;;;16.13;7.70;;;5.00;99.90;;;;;;5073547;28;20162;-68
2021/12/08 06:21:55;;;;;;;9.73;6.82;;;4.90;99.90;;;;;;5073569;28;20437;-68
2021/12/08 06:24:21;;;;;;;11.52;6.55;;;4.00;99.90;;;;;;5073434;28;20106;-72
2021/12/08 06:26:49;;;;;;;11.15;7.20;;;4.00;99.90;;;;;;5073407;28;20075;-67
2021/12/08 06:29:17;;;;;;;9.93;6.80;;;4.00;99.90;;;;;;5072218;28;20056;-69
2021/12/08 06:31:43;;;;;;;10.52;6.88;;;4.00;99.90;;;;;;5073243;28;20044;-69
2021/12/08 06:34:09;;;;;;;10.13;7.03;;;4.60;99.90;;;;;;5073494;28;20047;-73
2021/12/08 06:36:41;;;;;;;10.30;7.30;;;4.50;99.90;;;;;;5055687;28;20140;-69
2021/12/08 06:39:11;;;;;;;11.50;5.78;;;4.00;99.90;;;;;;5073202;28;20055;-69
2021/12/08 06:41:40;;;;;;;11.63;6.40;;;4.00;99.90;;;;;;5073174;28;20049;-69
2021/12/08 06:44:14;;;;;;;11.70;6.47;;;4.20;99.90;;;;;;5055445;28;20102;-70
2021/12/08 06:46:41;;;;;;;9.77;5.78;;;4.00;99.90;;;;;;5071977;28;20403;-72
2021/12/08 06:49:11;;;;;;;10.57;6.30;;;4.00;99.90;;;;;;5073250;28;20051;-69
2021/12/08 06:51:57;;;;;;;9.15;5.75;;;4.00;99.90;;;;;;5071940;28;20041;-69
2021/12/08 06:54:31;;;;;;;9.02;5.90;;;4.00;99.90;;;;;;5072934;28;20491;-70
2021/12/08 06:57:04;;;;;;;7.40;5.55;;;4.00;99.90;;;;;;5072934;28;20057;-69
2021/12/08 06:59:35;;;;;;;11.65;6.82;;;4.00;99.90;;;;;;5072136;28;20052;-69
2021/12/08 07:02:16;;;;;;;7.57;5.68;;;4.00;99.90;;;;;;5072055;28;20051;-69
2021/12/08 07:05:11;;;;;;;8.68;5.85;;;4.00;99.90;;;;;;5071798;28;20040;-69
2021/12/08 07:07:39;;;;;;;9.88;5.20;;;4.50;99.90;;;;;;5072875;28;20045;-69
2021/12/08 07:10:10;;;;;;;9.10;5.72;;;3.90;99.90;;;;;;5073104;28;20173;-68
2021/12/08 07:12:46;;;;;;;9.00;6.20;;;3.90;99.90;;;;;;5072883;28;20040;-70
2021/12/08 07:15:15;;;;;;;9.32;5.90;;;3.90;99.90;;;;;;5072903;28;20044;-69
2021/12/08 07:17:45;;;;;;;8.68;5.70;;;3.90;99.90;;;;;;5072699;28;20075;-73
2021/12/08 07:20:18;;;;;;;9.27;5.65;;;3.90;99.90;;;;;;5071957;28;20053;-69
2021/12/08 07:22:50;;;;;;;9.02;5.75;;;4.30;99.90;;;;;;5070814;28;20056;-69
2021/12/08 07:25:19;;;;;;;9.30;6.10;;;4.30;99.90;;;;;;5072549;28;20170;-69
2021/12/08 07:27:45;;;;;;;8.63;5.63;;;3.80;99.90;;;;;;5072706;28;20123;-71
2021/12/08 07:30:18;;;;;;;9.60;5.63;;;3.80;99.90;;;;;;5071396;28;20380;-69
2021/12/08 07:32:44;;;;;;;9.23;5.88;;;3.80;99.90;;;;;;5072539;28;20403;-72
2021/12/08 07:35:26;;;;;;;9.13;5.15;;;3.80;99.90;;;;;;5072703;28;20044;-73
2021/12/08 07:37:52;;;;;;;8.52;5.10;;;3.80;99.90;;;;;;5071328;28;20096;-72
2021/12/08 07:40:26;;;;;;;7.43;5.20;;;4.10;99.90;;;;;;5071614;28;20052;-69
2021/12/08 07:42:59;;;;;;;11.30;5.47;;;4.20;99.90;;;;;;5071853;28;20495;-69
2021/12/08 07:45:37;;;;;;;9.45;5.97;;;3.80;99.90;;;;;;5075298;28;20048;-71
2021/12/08 07:48:07;;;;;;;8.43;5.03;;;3.80;99.90;;;;;;5075375;28;20044;-69
2021/12/08 07:50:40;;;;;;;7.18;5.28;;;3.80;99.90;;;;;;5075120;28;20052;-69
2021/12/08 07:53:09;;;;;;;9.68;5.00;;;3.80;99.90;;;;;;5091763;28;20139;-70
2021/12/08 07:55:41;;;;;;;9.23;5.30;;;3.80;99.90;;;;;;5075833;28;20074;-73
2021/12/08 07:58:09;;;;;;;8.40;4.93;;;4.30;99.90;;;;;;5074489;28;20049;-69
2021/12/08 08:00:58;;;;;;;30.98;5.93;;;3.90;99.90;;;;;;5076020;28;20082;-70
2021/12/08 08:03:28;;;;;;;13.30;7.05;;;5.90;99.90;;;;;;5075612;28;20510;-70
2021/12/08 08:05:55;;;;;;;10.48;5.03;;;5.20;99.90;;;;;;5074879;28;20052;-70
2021/12/08 08:08:25;;;;;;;8.02;5.05;;;4.70;99.90;;;;;;5075872;28;20075;-70
2021/12/08 08:11:20;;;;;;;11.23;5.15;;;4.30;99.90;;;;;;5074813;28;20049;-70
2021/12/08 08:13:47;;;;;;;7.68;4.30;;;4.00;99.90;;;;;;5091131;28;20056;-69
2021/12/08 08:16:16;;;;;;;8.60;5.20;;;4.00;99.90;;;;;;5075993;28;20364;-69
2021/12/08 08:18:51;;;;;;;8.23;4.32;;;4.30;99.90;;;;;;5075597;28;20062;-72
2021/12/08 08:21:22;;;;;;;10.10;4.82;;;4.00;99.90;;;;;;5075881;28;20522;-71
2021/12/08 08:23:48;;;;;;;10.27;5.32;;;5.20;99.90;;;;;;5074573;28;20048;-69
2021/12/08 08:26:16;;;;;;;9.15;4.47;;;5.10;99.90;;;;;;5074602;28;20052;-69
2021/12/08 08:28:46;;;;;;;10.30;4.32;;;4.90;99.90;;;;;;5075461;28;20045;-71
2021/12/08 08:31:21;;;;;;;9.75;4.35;;;4.10;99.90;;;;;;5075212;28;20052;-68
2021/12/08 08:33:48;;;;;;;6.68;4.07;;;4.10;99.90;;;;;;5074398;28;20071;-69
2021/12/08 08:36:18;;;;;;;;;;;4.30;99.90;;;;;;5075832;28;20049;-69
2021/12/08 08:39:04;;;;;;;11.32;4.43;;;4.20;99.90;;;;;;5074114;28;20345;-69
2021/12/08 08:41:42;;;;;;;8.10;4.50;;;4.20;99.90;;;;;;5074240;28;20048;-69
2021/12/08 08:44:16;;;;;;;6.65;3.92;;;5.00;99.90;;;;;;5075389;28;20052;-69
2021/12/08 08:46:45;;;;;;;7.35;3.60;;;5.70;99.90;;;;;;5057783;28;20537;-68
2021/12/08 08:49:19;;;;;;;8.00;3.97;;;4.20;99.90;;;;;;5074132;28;20060;-70
2021/12/08 08:51:48;;;;;;;8.07;5.22;;;5.70;99.90;;;;;;5073826;28;20052;-70
2021/12/08 08:54:20;;;;;;;5.95;3.72;;;4.30;99.90;;;;;;5057451;28;20500;-69
2021/12/08 08:56:53;;;;;;;9.07;3.78;;;4.30;99.90;;;;;;5074870;28;20118;-72
2021/12/08 08:59:26;;;;;;;6.25;3.72;;;4.40;99.90;;;;;;5074966;28;20105;-71
2021/12/08 09:01:54;;;;;;;4.05;3.08;;;4.70;99.90;;;;;;5073924;28;20145;-69
2021/12/08 09:04:31;;;;;;;5.65;3.33;;;4.30;99.90;;;;;;5074883;28;20047;-69
2021/12/08 09:07:02;;;;;;;;;;;5.40;99.90;;;;;;5075070;28;20082;-70
2021/12/08 09:09:31;;;;;;;6.55;3.30;;;4.30;99.90;;;;;;5073816;28;19974;-69
2021/12/08 09:12:07;;;;;;;11.13;3.70;;;5.40;99.90;;;;;;5074647;28;20127;-69
2021/12/08 09:14:57;;;;;;;4.47;2.93;;;4.40;99.90;;;;;;5074688;28;20044;-70
2021/12/08 09:17:28;;;;;;;7.07;2.95;;;4.40;99.90;;;;;;5074467;28;20102;-68
2021/12/08 09:20:08;;;;;;;8.10;3.38;;;4.40;99.90;;;;;;5074451;28;20399;-69
2021/12/08 09:22:59;;;;;;;6.30;3.00;;;4.50;99.90;;;;;;5072824;28;20114;-69
2021/12/08 09:25:31;;;;;;;9.57;3.42;;;4.50;99.90;;;;;;5073162;28;20044;-71
2021/12/08 09:28:07;;;;;;;6.93;3.17;;;4.60;99.90;;;;;;5074139;28;20071;-69
2021/12/08 09:30:50;;;;;;;8.05;3.50;;;5.50;99.90;;;;;;5074313;28;20044;-69
2021/12/08 09:33:24;;;;;;;9.60;3.38;;;4.70;99.90;;;;;;5074404;28;20044;-69
2021/12/08 09:35:57;;;;;;;8.27;2.97;;;5.70;99.90;;;;;;5073092;28;20053;-72
2021/12/08 09:38:31;;;;;;;5.25;3.33;;;5.60;99.90;;;;;;5074030;28;20040;-69
2021/12/08 09:41:37;;;;;;;8.30;3.13;;;4.80;99.90;;;;;;5073884;28;20059;-72
2021/12/08 09:44:30;;;;;;;6.53;2.95;;;4.80;99.90;;;;;;5051791;28;20057;-69
2021/12/08 09:46:56;;;;;;;6.95;3.03;;;4.90;99.90;;;;;;4953380;29;20118;-69
2021/12/08 09:49:24;;;;;;;;;;;5.30;99.90;;;;;;4954201;29;20066;-69
2021/12/08 09:51:55;;;;;;;8.55;3.13;;;5.50;99.90;;;;;;4937651;29;20006;-69
2021/12/08 09:54:22;;;;;;;5.13;3.20;;;5.00;99.90;;;;;;4953686;29;20051;-68
2021/12/08 09:56:50;;;;;;;9.35;3.08;;;5.00;99.90;;;;;;4953443;29;20058;-68
2021/12/08 09:59:17;;;;;;;4.55;2.75;;;5.00;99.90;;;;;;4953514;29;20087;-69
2021/12/08 10:01:44;;;;;;;10.55;2.83;;;5.10;99.90;;;;;;4953585;29;20138;-71
2021/12/08 10:04:12;;;;;;;6.80;3.80;;;5.10;99.90;;;;;;4953546;29;20105;-69
2021/12/08 10:06:40;;;;;;;9.45;2.85;;;5.20;99.90;;;;;;4937114;29;20059;-69
2021/12/08 10:09:07;;;;;;;8.43;2.60;;;6.10;99.90;;;;;;4951622;29;20050;-69
2021/12/08 10:11:33;;;;;;;5.30;3.10;;;5.20;99.90;;;;;;4953070;29;20087;-69
2021/12/08 10:14:01;;;;;;;5.53;2.88;;;6.00;99.90;;;;;;4921517;29;20071;-71
2021/12/08 10:16:27;;;;;;;4.85;2.83;;;5.80;99.90;;;;;;4953180;29;20733;-71
2021/12/08 10:18:55;;;;;;;6.05;2.60;;;5.40;99.90;;;;;;4961066;28;20058;-69
2021/12/08 10:21:22;;;;;;;9.27;2.85;;;5.30;99.90;;;;;;4991692;28;20449;-69
2021/12/08 10:23:54;;;;;;;5.18;2.53;;;5.30;99.90;;;;;;5031037;28;20058;-69
2021/12/08 10:26:24;;;;;;;8.10;3.67;;;5.30;99.90;;;;;;5073236;28;20053;-70
2021/12/08 10:28:56;;;;;;;6.68;2.45;;;5.90;99.90;;;;;;5073048;28;20048;-69
2021/12/08 10:31:38;;;;;;;6.43;2.97;;;5.40;99.90;;;;;;5073083;28;20063;-69
2021/12/08 10:34:35;;;;;;;7.60;3.03;;;5.40;99.90;;;;;;5073044;28;20487;-69
2021/12/08 10:36:56;;;;;;;6.70;2.30;;;5.40;99.90;;;;;;5072544;28;20049;-69
2021/12/08 10:39:47;;;;;;;7.47;2.35;;;5.40;99.90;;;;;;5071634;28;20409;-69
2021/12/08 10:42:18;;;;;;;5.55;2.55;;;5.40;99.90;;;;;;5073111;28;20036;-71
2021/12/08 10:45:14;;;;;;;6.07;2.38;;;5.50;99.90;;;;;;5072844;28;20110;-70
2021/12/08 10:47:49;;;;;;;5.10;2.33;;;5.50;99.90;;;;;;5072832;28;20432;-70
2021/12/08 10:56:01;;;;;;;5.88;1.98;;;5.60;99.90;;;;;;5072680;28;20060;-70
2021/12/08 10:58:30;;;;;;;6.45;1.90;;;6.20;99.90;;;;;;5071567;28;20055;-70
2021/12/08 11:00:58;;;;;;;5.18;2.25;;;6.00;99.90;;;;;;5071691;28;20559;-71
2021/12/08 11:03:30;;;;;;;9.65;2.90;;;5.60;99.90;;;;;;5072911;28;20091;-68
2021/12/08 11:06:02;;;;;;;6.90;2.72;;;5.60;99.90;;;;;;5072846;28;20048;-71
2021/12/08 11:08:30;;;;;;;6.43;2.08;;;5.60;99.90;;;;;;5071749;28;20060;-69
2021/12/08 11:11:07;;;;;;;6.68;2.00;;;5.60;99.90;;;;;;5072326;28;20048;-71
2021/12/08 11:13:37;;;;;;;6.18;2.35;;;5.70;99.90;;;;;;5073061;28;20053;-69
2021/12/08 11:16:13;;;;;;;6.63;2.13;;;5.70;99.90;;;;;;5072691;28;20157;-70
2021/12/08 11:18:45;;;;;;;6.93;2.78;;;5.70;99.90;;;;;;5072703;28;20500;-69
2021/12/08 11:21:31;;;;;;;12.80;2.75;;;5.80;99.90;;;;;;5076385;28;20056;-70
2021/12/08 11:24:56;;;;;;;7.75;2.45;;;5.80;99.90;;;;;;5071388;28;20044;-70
2021/12/08 11:27:30;;;;;;;7.63;2.90;;;5.80;99.90;;;;;;5034272;28;20128;-69
2021/12/08 11:29:56;;;;;;;4.63;1.83;;;6.90;99.90;;;;;;5034316;28;20080;-70
2021/12/08 11:32:24;;;;;;;11.43;2.95;;;5.80;99.90;;;;;;5017706;28;20068;-70
2021/12/08 11:34:53;;;;;;;5.25;2.22;;;5.80;99.90;;;;;;5017635;28;20054;-70
2021/12/08 11:37:24;;;;;;;4.55;1.77;;;5.80;99.90;;;;;;5017942;28;20491;-71
2021/12/08 11:39:55;;;;;;;6.85;2.25;;;5.90;99.90;;;;;;5033981;28;20405;-72
2021/12/08 11:42:25;;;;;;;7.25;2.33;;;5.90;99.90;;;;;;5033994;28;20420;-69
2021/12/08 11:44:56;;;;;;;5.80;1.90;;;5.90;99.90;;;;;;5019136;28;20497;-71
2021/12/08 11:47:33;;;;;;;8.02;2.22;;;5.90;99.90;;;;;;5017651;28;20061;-73
2021/12/08 11:50:09;;;;;;;6.97;1.90;;;5.90;99.90;;;;;;5033891;28;20045;-70
2021/12/08 11:52:35;;;;;;;11.10;2.15;;;5.90;99.90;;;;;;5033697;28;20171;-70
2021/12/08 11:55:12;;;;;;;4.93;2.00;;;5.90;99.90;;;;;;5050219;28;20061;-69
2021/12/08 11:57:42;;;;;;;4.97;2.00;;;5.90;99.90;;;;;;5015352;28;20053;-72
2021/12/08 12:00:14;;;;;;;7.40;2.45;;;6.00;99.90;;;;;;5037821;28;20574;-70
2021/12/08 12:03:01;;;;;;;6.18;1.88;;;6.00;99.90;;;;;;5069125;28;20052;-70
2021/12/08 12:05:39;;;;;;;6.22;2.28;;;6.30;99.90;;;;;;5075724;28;20053;-72
2021/12/08 12:08:08;;;;;;;6.03;2.30;;;6.00;99.90;;;;;;5074762;28;20488;-70
2021/12/08 12:10:38;;;;;;;12.93;2.40;;;6.00;99.90;;;;;;5075677;28;20045;-71
2021/12/08 12:13:08;;;;;;;4.70;2.08;;;6.00;99.90;;;;;;5074495;28;20044;-71
2021/12/08 12:15:35;;;;;;;6.57;2.08;;;6.00;99.90;;;;;;5075745;28;20044;-70
2021/12/08 12:18:00;;;;;;;3.92;2.22;;;6.10;99.90;;;;;;5075497;28;20510;-70
2021/12/08 12:20:46;;;;;;;4.28;1.80;;;6.00;99.90;;;;;;5074694;28;20045;-70
2021/12/08 12:23:22;;;;;;;7.03;2.58;;;6.00;99.90;;;;;;5075391;28;20052;-70
2021/12/08 12:26:12;;;;;;;8.18;2.58;;;6.00;99.90;;;;;;5075431;28;20055;-71
2021/12/08 12:28:53;;;;;;;8.15;2.67;;;5.90;99.90;;;;;;5075305;28;20084;-72
2021/12/08 12:31:45;;;;;;;7.60;2.53;;;5.90;99.90;;;;;;5073908;28;20510;-74
2021/12/08 12:34:29;;;;;;;5.53;1.77;;;5.90;99.90;;;;;;5074344;28;20124;-70
2021/12/08 12:36:57;;;;;;;3.65;2.08;;;5.90;99.90;;;;;;5075252;28;20044;-70
2021/12/08 12:39:26;;;;;;;5.57;1.73;;;6.00;99.90;;;;;;5074801;28;20045;-70
2021/12/08 12:42:12;;;;;;;6.05;2.00;;;7.30;99.90;;;;;;5073943;28;20087;-69
2021/12/08 12:44:45;;;;;;;6.87;2.40;;;5.90;99.90;;;;;;5075235;28;20090;-72
2021/12/08 12:47:22;;;;;;;3.88;1.98;;;5.90;99.90;;;;;;5075116;28;20062;-70
2021/12/08 12:50:28;;;;;;;5.65;1.77;;;5.90;99.90;;;;;;5075332;28;20121;-72
2021/12/08 12:52:56;;;;;;;4.35;1.98;;;6.00;99.90;;;;;;5052853;28;20045;-72
2021/12/08 12:55:35;;;;;;;7.40;2.03;;;6.20;99.90;;;;;;5052719;28;20045;-70
2021/12/08 12:58:04;;;;;;;6.40;2.05;;;6.00;99.90;;;;;;5052497;28;20057;-70
2021/12/08 13:00:31;;;;;;;4.90;1.95;;;6.00;99.90;;;;;;5052643;28;20095;-70
2021/12/08 13:02:57;;;;;;;9.00;2.70;;;6.00;99.90;;;;;;5052721;28;20081;-72
2021/12/08 13:05:47;;;;;;;8.40;2.25;;;6.00;99.90;;;;;;5052684;28;20579;-70
2021/12/08 13:08:42;;;;;;;7.57;2.38;;;6.50;99.90;;;;;;5038552;28;20057;-74
2021/12/08 13:11:25;;;;;;;6.55;2.58;;;6.00;99.90;;;;;;5052306;28;20057;-69
2021/12/08 13:13:54;;;;;;;7.55;1.90;;;7.50;99.90;;;;;;5052428;28;20053;-70
2021/12/08 13:16:33;;;;;;;4.60;1.90;;;6.00;99.90;;;;;;5035947;28;20057;-70
2021/12/08 13:19:04;;;;;;;4.05;1.95;;;6.00;99.90;;;;;;5052300;28;20045;-74
2021/12/08 13:21:48;;;;;;;6.63;2.22;;;7.30;99.90;;;;;;5035892;28;20092;-70
2021/12/08 13:24:38;;;;;;;8.45;2.30;;;6.00;99.90;;;;;;5063154;28;20554;-73
2021/12/08 13:27:12;;;;;;;5.90;2.08;;;6.00;99.90;;;;;;5074393;28;20040;-70
2021/12/08 13:29:45;;;;;;;9.80;1.83;;;5.90;99.90;;;;;;5074507;28;20052;-71
2021/12/08 13:32:12;;;;;;;3.00;2.13;;;6.00;99.90;;;;;;5074350;28;20041;-70
2021/12/08 13:34:44;;;;;;;5.90;1.90;;;6.10;99.90;;;;;;5074167;28;20588;-70
2021/12/08 13:37:25;;;;;;;4.90;1.65;;;6.00;99.90;;;;;;5074279;28;20080;-71
2021/12/08 13:39:53;;;;;;;7.43;2.10;;;6.00;99.90;;;;;;5073104;28;20396;-72
2021/12/08 13:42:32;;;;;;;5.72;2.45;;;5.90;99.90;;;;;;5073425;28;20043;-72
2021/12/08 13:45:18;;;;;;;6.05;1.90;;;5.90;99.90;;;;;;5074071;28;20056;-70
2021/12/08 13:47:47;;;;;;;5.07;1.45;;;5.90;99.90;;;;;;5073979;28;20078;-74
2021/12/08 13:50:25;;;;;;;4.75;1.55;;;6.20;99.90;;;;;;5072833;28;20052;-70
2021/12/08 13:53:06;;;;;;;6.13;1.33;;;5.90;99.90;;;;;;5072744;28;20048;-72
2021/12/08 13:55:40;;;;;;;10.63;1.80;;;5.90;99.90;;;;;;5073851;28;20487;-73
2021/12/08 13:58:14;;;;;;;3.42;1.50;;;5.90;99.90;;;;;;5073524;28;20464;-70
2021/12/08 14:00:48;;;;;;;5.25;1.67;;;5.90;99.90;;;;;;5073672;28;20107;-70
2021/12/08 14:03:15;;;;;;;6.40;1.50;;;5.90;99.90;;;;;;5056862;28;20045;-70
2021/12/08 14:05:54;;;;;;;4.80;1.17;;;5.90;99.90;;;;;;5073813;28;20074;-70
2021/12/08 14:08:34;;;;;;;6.30;2.13;;;5.80;99.90;;;;;;5073698;28;20052;-72